Time;durP1;ratioP1;P1;durP2;ratioP2;P2;SDS_P1;SDS_P2;PMS_P1;PMS_P2;Temp;Humidity;BMP_temperature;BMP_pressure;BME280_temperature;BME280_humidity;BME280_pressure;Samples;Min_cycle;Max_cycle;Signal;HPM_P1;HPM_P2
2023/12/01 00:00:06;;;;;;;25.03;9.87;;;0.70;99.90;;;;;;5051000;28;20192;-78
2023/12/01 00:02:32;;;;;;;19.07;10.20;;;0.50;99.90;;;;;;5051113;28;20334;-78
2023/12/01 00:04:58;;;;;;;19.63;10.33;;;;;;;;;;5051440;28;20181;-78
2023/12/01 00:07:23;;;;;;;18.27;10.27;;;1.20;99.90;;;;;;5051737;28;20261;-79
2023/12/01 00:09:49;;;;;;;18.20;10.23;;;0.60;99.90;;;;;;5052280;28;20208;-79
2023/12/01 00:12:15;;;;;;;17.20;10.23;;;0.80;99.90;;;;;;5050911;28;20176;-79
2023/12/01 00:14:41;;;;;;;18.00;10.03;;;0.90;99.90;;;;;;5049514;28;20582;-78
2023/12/01 00:17:09;;;;;;;17.70;9.90;;;0.70;99.90;;;;;;5051035;28;20196;-79
2023/12/01 00:19:36;;;;;;;21.03;10.77;;;0.90;99.90;;;;;;5050965;28;20188;-79
2023/12/01 00:22:02;;;;;;;18.30;10.07;;;;;;;;;;5051913;28;20326;-78
2023/12/01 00:24:28;;;;;;;24.00;10.53;;;0.70;99.90;;;;;;5050744;28;20271;-75
2023/12/01 00:26:54;;;;;;;20.47;10.40;;;0.80;99.90;;;;;;5051433;28;20722;-76
2023/12/01 00:29:19;;;;;;;18.80;10.10;;;0.80;99.90;;;;;;5054369;28;20640;-76
2023/12/01 00:31:45;;;;;;;20.87;10.93;;;0.90;99.90;;;;;;5060578;28;20175;-78
2023/12/01 00:34:11;;;;;;;21.20;10.87;;;;;;;;;;5051593;28;20237;-76
2023/12/01 00:36:40;;;;;;;21.83;10.50;;;0.80;99.90;;;;;;5052371;28;20183;-78
2023/12/01 00:39:06;;;;;;;23.10;10.83;;;1.20;99.90;;;;;;5051415;28;20185;-77
2023/12/01 00:41:35;;;;;;;23.77;11.13;;;0.80;99.90;;;;;;5051548;28;20177;-76
2023/12/01 00:44:01;;;;;;;19.83;10.80;;;0.60;99.90;;;;;;5051636;28;20192;-77
2023/12/01 00:46:26;;;;;;;17.63;10.93;;;0.50;99.90;;;;;;5052381;28;20201;-77
2023/12/01 00:48:52;;;;;;;23.27;12.80;;;0.70;99.90;;;;;;5051923;28;20324;-76
2023/12/01 00:51:19;;;;;;;26.90;12.27;;;0.70;99.90;;;;;;5050974;28;20216;-77
2023/12/01 00:53:46;;;;;;;21.40;12.10;;;0.80;99.90;;;;;;5071833;28;20168;-76
2023/12/01 00:56:11;;;;;;;25.80;11.97;;;0.80;99.90;;;;;;5067026;28;20185;-77
2023/12/01 00:58:37;;;;;;;24.67;11.90;;;0.70;99.90;;;;;;5054663;28;20642;-76
2023/12/01 01:01:05;;;;;;;18.17;10.63;;;0.80;99.90;;;;;;5055480;28;20192;-75
2023/12/01 01:03:31;;;;;;;18.53;10.70;;;0.80;99.90;;;;;;5061539;28;20196;-77
2023/12/01 01:05:56;;;;;;;18.93;10.93;;;0.70;99.90;;;;;;5053927;28;20628;-77
2023/12/01 01:08:22;;;;;;;21.07;11.00;;;0.60;99.90;;;;;;5051547;28;20204;-76
2023/12/01 01:10:48;;;;;;;18.23;10.40;;;0.30;99.90;;;;;;5054464;28;20211;-76
2023/12/01 01:13:14;;;;;;;21.17;10.00;;;0.50;99.90;;;;;;5053622;28;20181;-77
2023/12/01 01:15:40;;;;;;;20.20;11.43;;;0.90;99.90;;;;;;5053131;28;20590;-76
2023/12/01 01:18:08;;;;;;;23.80;11.57;;;0.50;99.90;;;;;;5053272;28;20181;-77
2023/12/01 01:20:34;;;;;;;20.20;11.03;;;0.30;99.90;;;;;;5052967;28;20229;-75
2023/12/01 01:23:00;;;;;;;20.37;10.97;;;;;;;;;;5053453;28;20176;-75
2023/12/01 01:25:26;;;;;;;23.07;11.20;;;;;;;;;;5051640;28;20196;-73
2023/12/01 01:27:52;;;;;;;18.43;9.87;;;;;;;;;;5053325;28;20180;-77
2023/12/01 01:30:18;;;;;;;22.50;11.10;;;;;;;;;;5053044;28;20217;-77
2023/12/01 01:32:44;;;;;;;21.30;11.60;;;0.60;99.90;;;;;;5053004;28;20273;-77
2023/12/01 01:35:10;;;;;;;21.20;11.13;;;0.30;99.90;;;;;;5052772;28;20241;-75
2023/12/01 01:37:35;;;;;;;20.27;11.07;;;0.50;99.90;;;;;;5067373;28;20190;-75
2023/12/01 01:40:03;;;;;;;25.43;10.87;;;0.50;99.90;;;;;;5052914;28;20185;-74
2023/12/01 01:42:29;;;;;;;23.63;10.97;;;0.40;99.90;;;;;;5052673;28;20267;-75
2023/12/01 01:44:55;;;;;;;20.73;11.10;;;0.10;99.90;;;;;;5053074;28;20189;-77
2023/12/01 01:47:21;;;;;;;22.47;10.63;;;;;;;;;;5052492;28;20203;-75
2023/12/01 01:49:47;;;;;;;22.40;10.83;;;0.50;99.90;;;;;;5052466;28;20223;-76
2023/12/01 01:52:12;;;;;;;20.00;10.40;;;0.50;99.90;;;;;;5052425;28;20539;-76
2023/12/01 01:54:39;;;;;;;21.23;10.20;;;0.50;99.90;;;;;;5052576;28;20190;-76
2023/12/01 01:57:05;;;;;;;21.90;11.67;;;0.70;99.90;;;;;;5052520;28;20175;-76
2023/12/01 01:59:31;;;;;;;21.83;11.33;;;;;;;;;;5052710;28;20184;-76
2023/12/01 02:01:57;;;;;;;20.67;11.63;;;0.60;99.90;;;;;;5052253;28;20177;-76
2023/12/01 02:04:23;;;;;;;24.03;12.33;;;0.30;99.90;;;;;;5052550;28;20183;-76
2023/12/01 02:06:49;;;;;;;21.53;10.93;;;;;;;;;;5052187;28;20202;-76
2023/12/01 02:09:16;;;;;;;22.50;11.70;;;0.40;99.90;;;;;;5052162;28;20315;-77
2023/12/01 02:11:42;;;;;;;26.33;11.97;;;0.40;99.90;;;;;;5052400;28;20218;-78
2023/12/01 02:14:08;;;;;;;21.77;11.73;;;0.50;99.90;;;;;;5051708;28;20200;-78
2023/12/01 02:16:35;;;;;;;19.13;10.87;;;0.30;99.90;;;;;;5052486;28;20237;-78
2023/12/01 02:19:01;;;;;;;22.27;11.30;;;;;;;;;;5051878;28;20245;-78
2023/12/01 02:21:27;;;;;;;19.37;10.33;;;0.30;99.90;;;;;;5051764;28;20177;-78
2023/12/01 02:23:54;;;;;;;20.23;11.17;;;0.50;99.90;;;;;;5051650;28;20538;-78
2023/12/01 02:26:21;;;;;;;18.93;10.07;;;0.40;99.90;;;;;;5051981;28;20251;-79
2023/12/01 02:28:47;;;;;;;17.83;9.83;;;0.50;99.90;;;;;;5051709;28;20231;-79
2023/12/01 02:31:13;;;;;;;20.97;10.33;;;0.20;99.90;;;;;;5051912;28;20217;-80
2023/12/01 02:33:39;;;;;;;16.87;10.07;;;0.20;99.90;;;;;;5051762;28;20172;-80
2023/12/01 02:36:06;;;;;;;18.40;9.67;;;0.50;99.90;;;;;;5051896;28;20299;-79
2023/12/01 02:38:33;;;;;;;16.00;9.60;;;;;;;;;;5055318;28;20537;-79
2023/12/01 02:40:59;;;;;;;21.53;10.00;;;-0.10;99.90;;;;;;5057795;28;20343;-80
2023/12/01 02:43:24;;;;;;;16.27;9.47;;;0.20;99.90;;;;;;5061772;28;20316;-79
2023/12/01 02:45:50;;;;;;;17.50;9.93;;;0.20;99.90;;;;;;5051636;28;20196;-80
2023/12/01 02:48:17;;;;;;;18.40;9.90;;;-0.10;99.90;;;;;;5051812;28;20739;-80
2023/12/01 02:50:43;;;;;;;20.03;9.80;;;;;;;;;;5051232;28;20231;-79
2023/12/01 02:53:09;;;;;;;18.17;9.57;;;0.00;99.90;;;;;;5051751;28;20715;-79
2023/12/01 02:55:34;;;;;;;18.27;10.23;;;0.00;99.90;;;;;;5051321;28;20193;-79
2023/12/01 02:58:01;;;;;;;19.53;9.87;;;0.20;99.90;;;;;;5051866;28;20169;-79
2023/12/01 03:00:26;;;;;;;19.97;9.43;;;0.30;99.90;;;;;;5051471;28;20199;-79
2023/12/01 03:02:52;;;;;;;17.83;10.13;;;;;;;;;;5051847;28;20632;-75
2023/12/01 03:05:19;;;;;;;16.27;8.97;;;0.10;99.90;;;;;;5051232;28;20177;-75
2023/12/01 03:07:45;;;;;;;17.10;8.80;;;0.20;99.90;;;;;;5051385;28;20207;-77
2023/12/01 03:10:12;;;;;;;19.77;9.80;;;-0.30;99.90;;;;;;5062745;28;20236;-76
2023/12/01 03:12:39;;;;;;;18.10;10.07;;;0.00;99.90;;;;;;5073629;28;20168;-75
2023/12/01 03:15:10;;;;;;;18.97;9.60;;;0.00;99.90;;;;;;5053440;28;20670;-76
2023/12/01 03:17:36;;;;;;;16.93;9.80;;;0.10;99.90;;;;;;5052047;28;20172;-76
2023/12/01 03:20:09;;;;;;;20.73;9.73;;;0.10;99.90;;;;;;5051458;28;20583;-75
2023/12/01 03:22:35;;;;;;;16.13;9.23;;;0.50;99.90;;;;;;5051025;28;20260;-76
2023/12/01 03:25:02;;;;;;;16.97;9.30;;;0.20;99.90;;;;;;5051195;28;20577;-75
2023/12/01 03:27:27;;;;;;;17.67;9.60;;;0.00;99.90;;;;;;5050637;28;20219;-76
2023/12/01 03:29:53;;;;;;;18.13;8.97;;;;;;;;;;5051229;28;20604;-76
2023/12/01 03:32:19;;;;;;;16.53;9.17;;;0.30;99.90;;;;;;5050093;28;20214;-75
2023/12/01 03:34:45;;;;;;;20.13;9.00;;;0.20;99.90;;;;;;5051000;28;20675;-75
2023/12/01 03:37:11;;;;;;;17.83;8.90;;;;;;;;;;5050799;28;20188;-75
2023/12/01 03:39:37;;;;;;;17.90;8.40;;;0.40;99.90;;;;;;5051118;28;20643;-75
2023/12/01 03:42:04;;;;;;;15.90;8.23;;;0.10;99.90;;;;;;5050677;28;20183;-76
2023/12/01 03:44:30;;;;;;;17.00;8.97;;;0.10;99.90;;;;;;5049346;28;20711;-75
2023/12/01 03:46:55;;;;;;;15.47;8.57;;;0.10;99.90;;;;;;5050723;28;20196;-75
2023/12/01 03:49:21;;;;;;;17.27;9.50;;;0.00;99.90;;;;;;5053716;28;20235;-75
2023/12/01 03:51:49;;;;;;;17.60;9.20;;;;;;;;;;5064655;28;20703;-75
2023/12/01 03:54:18;;;;;;;15.67;7.90;;;0.00;99.90;;;;;;5054215;28;20633;-75
2023/12/01 03:56:43;;;;;;;16.13;8.83;;;0.20;99.90;;;;;;5052917;28;20180;-75
2023/12/01 03:59:12;;;;;;;15.60;8.03;;;0.30;99.90;;;;;;5052183;28;20653;-75
2023/12/01 04:01:38;;;;;;;16.50;8.87;;;0.20;99.90;;;;;;5056911;28;20179;-75
2023/12/01 04:04:05;;;;;;;16.30;8.80;;;0.00;99.90;;;;;;5053064;28;20189;-77
2023/12/01 04:06:32;;;;;;;19.63;9.10;;;0.10;99.90;;;;;;5053910;28;20267;-75
2023/12/01 04:09:04;;;;;;;17.77;8.37;;;;;;;;;;5051509;28;20197;-76
2023/12/01 04:11:30;;;;;;;17.70;9.03;;;0.10;99.90;;;;;;5056821;28;20215;-75
2023/12/01 04:13:56;;;;;;;18.67;8.50;;;0.20;99.90;;;;;;5052365;28;20550;-76
2023/12/01 04:16:24;;;;;;;21.13;8.80;;;0.20;99.90;;;;;;5060908;28;20662;-75
2023/12/01 04:18:50;;;;;;;16.23;7.70;;;-0.40;99.90;;;;;;5060451;28;20184;-76
2023/12/01 04:21:16;;;;;;;13.53;7.43;;;0.10;99.90;;;;;;5050280;28;20204;-75
2023/12/01 04:23:42;;;;;;;17.50;9.03;;;0.30;99.90;;;;;;5051096;28;20257;-78
2023/12/01 04:26:08;;;;;;;18.73;8.83;;;0.10;99.90;;;;;;5054004;28;20660;-79
2023/12/01 04:28:34;;;;;;;14.73;8.33;;;0.10;99.90;;;;;;5055527;28;20222;-77
2023/12/01 04:30:59;;;;;;;17.20;8.67;;;0.20;99.90;;;;;;5050494;28;20220;-77
2023/12/01 04:33:25;;;;;;;15.93;8.97;;;0.20;99.90;;;;;;5050311;28;20213;-76
2023/12/01 04:35:51;;;;;;;15.93;8.73;;;0.10;99.90;;;;;;5056150;28;20659;-77
2023/12/01 04:38:16;;;;;;;17.37;8.93;;;0.00;99.90;;;;;;5058919;28;20176;-77
2023/12/01 04:40:42;;;;;;;20.07;8.47;;;0.10;99.90;;;;;;5049529;28;20214;-77
2023/12/01 04:43:08;;;;;;;18.30;9.13;;;;;;;;;;5051081;28;20196;-77
2023/12/01 04:45:37;;;;;;;20.80;9.20;;;0.10;99.90;;;;;;5054686;28;20313;-77
2023/12/01 04:48:03;;;;;;;18.17;8.30;;;;;;;;;;5050565;28;20238;-77
2023/12/01 04:50:30;;;;;;;16.73;8.73;;;0.10;99.90;;;;;;5053668;28;20217;-77
2023/12/01 04:53:00;;;;;;;25.70;10.20;;;0.30;99.90;;;;;;5053262;28;20713;-78
2023/12/01 04:55:29;;;;;;;17.80;8.93;;;0.90;99.90;;;;;;5053955;28;20208;-77
2023/12/01 04:57:55;;;;;;;16.80;8.47;;;0.20;99.90;;;;;;5053781;28;20182;-78
2023/12/01 05:00:25;;;;;;;18.40;9.03;;;0.00;99.90;;;;;;5060644;28;20192;-78
2023/12/01 05:02:56;;;;;;;17.93;9.37;;;0.10;99.90;;;;;;5053264;28;20185;-80
2023/12/01 05:05:27;;;;;;;17.53;8.37;;;-0.20;99.90;;;;;;5060917;28;20728;-78
2023/12/01 05:07:57;;;;;;;15.97;7.80;;;-0.10;99.90;;;;;;5062366;28;20182;-78
2023/12/01 05:10:24;;;;;;;17.23;8.17;;;0.00;99.90;;;;;;5058809;28;20209;-77
2023/12/01 05:12:55;;;;;;;14.73;7.80;;;0.10;99.90;;;;;;5051987;28;20189;-78
2023/12/01 05:15:25;;;;;;;15.60;8.53;;;-0.60;99.90;;;;;;5053761;28;20631;-77
2023/12/01 05:18:00;;;;;;;17.57;8.60;;;-0.20;99.90;;;;;;5053118;28;20177;-78
2023/12/01 05:20:27;;;;;;;13.57;8.17;;;-0.10;99.90;;;;;;5053446;28;20185;-78
2023/12/01 05:23:09;;;;;;;14.27;7.97;;;-0.30;99.90;;;;;;5060365;28;20244;-77
2023/12/01 05:25:36;;;;;;;16.77;8.50;;;-0.10;99.90;;;;;;5078874;28;20165;-78
2023/12/01 05:28:07;;;;;;;16.53;8.10;;;-0.30;99.90;;;;;;5056340;28;20226;-76
2023/12/01 05:30:35;;;;;;;17.90;8.60;;;-0.20;99.90;;;;;;5054145;28;20224;-75
2023/12/01 05:33:01;;;;;;;18.77;9.00;;;1.30;99.90;;;;;;5053185;28;20191;-75
2023/12/01 05:35:27;;;;;;;18.67;8.17;;;0.30;99.90;;;;;;5053145;28;20188;-73
2023/12/01 05:37:54;;;;;;;16.97;8.20;;;-0.10;99.90;;;;;;5053092;28;20209;-74
2023/12/01 05:40:25;;;;;;;16.70;7.97;;;-0.20;99.90;;;;;;5053063;28;20670;-75
2023/12/01 05:42:52;;;;;;;15.43;7.60;;;-0.50;99.90;;;;;;5052590;28;20177;-73
2023/12/01 05:45:20;;;;;;;16.87;7.47;;;-0.40;99.90;;;;;;5053063;28;20274;-74
2023/12/01 05:47:47;;;;;;;14.77;8.13;;;0.20;99.90;;;;;;5052370;28;20270;-75
2023/12/01 05:50:15;;;;;;;16.37;8.60;;;-0.10;99.90;;;;;;5052872;28;20305;-75
2023/12/01 05:52:43;;;;;;;14.10;8.13;;;-0.40;99.90;;;;;;5052389;28;20179;-74
2023/12/01 05:55:16;;;;;;;15.60;8.63;;;-0.20;99.90;;;;;;5051906;28;20591;-75
2023/12/01 05:57:46;;;;;;;19.30;8.43;;;-0.40;99.90;;;;;;5052144;28;20179;-74
2023/12/01 06:00:17;;;;;;;17.03;8.07;;;-0.50;99.90;;;;;;5052691;28;20206;-74
2023/12/01 06:02:44;;;;;;;15.23;8.33;;;-0.40;99.90;;;;;;5052126;28;20176;-74
2023/12/01 06:05:11;;;;;;;14.93;8.10;;;-0.30;99.90;;;;;;5052424;28;20177;-75
2023/12/01 06:07:37;;;;;;;23.87;9.00;;;;;;;;;;5052464;28;20272;-74
2023/12/01 06:10:06;;;;;;;17.20;8.23;;;-0.50;99.90;;;;;;5054428;28;20211;-73
2023/12/01 06:12:33;;;;;;;16.60;8.80;;;-0.30;99.90;;;;;;5052817;28;20654;-75
2023/12/01 06:14:59;;;;;;;15.77;8.27;;;-0.30;99.90;;;;;;5053780;28;20682;-74
2023/12/01 06:17:24;;;;;;;14.53;8.30;;;-0.40;99.90;;;;;;5053088;28;20179;-74
2023/12/01 06:19:50;;;;;;;16.23;8.73;;;-0.40;99.90;;;;;;5053630;28;20177;-75
2023/12/01 06:22:16;;;;;;;15.60;8.67;;;-0.30;99.90;;;;;;5055931;28;20188;-74
2023/12/01 06:24:42;;;;;;;19.67;8.73;;;;;;;;;;5053687;28;20634;-74
2023/12/01 06:27:08;;;;;;;15.97;7.90;;;-0.30;99.90;;;;;;5058198;28;20310;-75
2023/12/01 06:29:34;;;;;;;17.43;8.70;;;-0.70;99.90;;;;;;5053087;28;20671;-75
2023/12/01 06:32:00;;;;;;;23.13;8.70;;;;;;;;;;5052010;28;20639;-75
2023/12/01 06:34:26;;;;;;;18.17;8.73;;;-0.40;99.90;;;;;;5051859;28;20181;-75
2023/12/01 06:36:52;;;;;;;17.47;8.87;;;-0.40;99.90;;;;;;5051906;28;20264;-75
2023/12/01 06:39:18;;;;;;;18.57;9.83;;;;;;;;;;5059705;28;20739;-75
2023/12/01 06:41:46;;;;;;;19.57;9.13;;;-0.40;99.90;;;;;;5060786;28;20180;-75
2023/12/01 06:44:12;;;;;;;19.97;9.80;;;;;;;;;;5052695;28;20677;-72
2023/12/01 06:46:39;;;;;;;18.67;8.70;;;;;;;;;;5052165;28;20837;-74
2023/12/01 06:49:05;;;;;;;20.77;10.00;;;-0.40;99.90;;;;;;5051285;28;20248;-76
2023/12/01 06:51:31;;;;;;;18.47;9.47;;;0.20;99.90;;;;;;5051624;28;20220;-76
2023/12/01 06:53:57;;;;;;;18.57;9.70;;;-0.30;99.90;;;;;;5051580;28;20218;-77
2023/12/01 06:56:23;;;;;;;17.77;9.97;;;;;;;;;;5051547;28;20192;-77
2023/12/01 06:58:49;;;;;;;16.80;9.00;;;-0.40;99.90;;;;;;5050310;28;20677;-77
2023/12/01 07:01:18;;;;;;;21.03;10.47;;;-0.50;99.90;;;;;;5051250;28;20264;-77
2023/12/01 07:03:47;;;;;;;21.23;10.03;;;-0.10;99.90;;;;;;5051451;28;20636;-78
2023/12/01 07:06:13;;;;;;;21.77;11.17;;;-0.40;99.90;;;;;;5050543;28;20181;-75
2023/12/01 07:08:39;;;;;;;20.43;10.97;;;-0.40;99.90;;;;;;5051125;28;20232;-75
2023/12/01 07:11:06;;;;;;;17.27;9.43;;;;;;;;;;5050448;28;20668;-76
2023/12/01 07:13:31;;;;;;;26.60;11.70;;;-0.20;99.90;;;;;;5056588;28;20234;-76
2023/12/01 07:15:57;;;;;;;20.70;11.17;;;-0.10;99.90;;;;;;5060422;28;20171;-75
2023/12/01 07:18:24;;;;;;;26.27;11.23;;;-0.20;99.90;;;;;;5047616;28;20177;-76
2023/12/01 07:20:50;;;;;;;19.47;10.37;;;-0.40;99.90;;;;;;5050945;28;20225;-74
2023/12/01 07:23:18;;;;;;;21.87;11.37;;;;;;;;;;5053972;28;20180;-76
2023/12/01 07:25:47;;;;;;;21.53;11.73;;;-0.10;99.90;;;;;;5052954;28;20189;-75
2023/12/01 07:28:13;;;;;;;25.07;12.67;;;-0.40;99.90;;;;;;5053429;28;20198;-77
2023/12/01 07:30:41;;;;;;;24.77;12.10;;;;;;;;;;5053078;28;20204;-75
2023/12/01 07:33:10;;;;;;;23.53;12.50;;;0.00;99.90;;;;;;5056197;28;20247;-75
2023/12/01 07:35:36;;;;;;;25.43;12.63;;;;;;;;;;5054939;28;20643;-74
2023/12/01 07:38:04;;;;;;;29.80;12.47;;;;;;;;;;5051099;28;20643;-75
2023/12/01 07:40:31;;;;;;;22.83;12.20;;;-0.10;99.90;;;;;;5064961;28;20231;-74
2023/12/01 07:42:57;;;;;;;27.43;13.43;;;0.10;99.90;;;;;;5077916;28;20177;-75
2023/12/01 07:45:24;;;;;;;25.33;12.43;;;0.30;99.90;;;;;;5053526;28;20297;-76
2023/12/01 07:47:52;;;;;;;26.23;13.00;;;-0.20;99.90;;;;;;5052089;28;20185;-75
2023/12/01 07:50:18;;;;;;;26.10;13.10;;;0.00;99.90;;;;;;5052056;28;20322;-77
2023/12/01 07:52:48;;;;;;;26.10;12.73;;;0.00;99.90;;;;;;5054672;28;20259;-76
2023/12/01 07:55:15;;;;;;;23.77;12.27;;;0.10;99.90;;;;;;5052366;28;20778;-76
2023/12/01 07:57:41;;;;;;;29.07;13.73;;;0.10;99.90;;;;;;5048910;28;20184;-76
2023/12/01 08:00:17;;;;;;;31.20;13.10;;;0.30;99.90;;;;;;5055975;28;20332;-76
2023/12/01 08:02:47;;;;;;;24.60;12.73;;;0.30;99.90;;;;;;5045594;28;20180;-76
2023/12/01 08:05:16;;;;;;;24.43;12.50;;;0.40;99.90;;;;;;5062687;28;20168;-75
2023/12/01 08:07:43;;;;;;;22.93;11.40;;;0.30;99.90;;;;;;5050788;28;20199;-76
2023/12/01 08:10:09;;;;;;;27.60;12.00;;;0.40;99.90;;;;;;5052706;28;20678;-76
2023/12/01 08:12:35;;;;;;;20.90;11.20;;;0.20;99.90;;;;;;5051705;28;20185;-74
2023/12/01 08:15:01;;;;;;;22.57;11.90;;;;;;;;;;5052161;28;20581;-77
2023/12/01 08:17:27;;;;;;;24.47;11.80;;;0.30;99.90;;;;;;5064708;28;20179;-76
2023/12/01 08:19:53;;;;;;;22.97;11.63;;;0.30;99.90;;;;;;5054862;28;20265;-76
2023/12/01 08:22:18;;;;;;;27.90;12.23;;;-0.20;99.90;;;;;;5054148;28;20205;-77
2023/12/01 08:24:47;;;;;;;26.70;13.47;;;-0.20;99.90;;;;;;5054005;28;20652;-74
2023/12/01 08:27:13;;;;;;;28.13;13.17;;;;;;;;;;5054220;28;20659;-74
2023/12/01 08:29:39;;;;;;;25.20;11.60;;;;;;;;;;5053911;28;20190;-76
2023/12/01 08:32:05;;;;;;;24.37;11.53;;;0.10;99.90;;;;;;5055022;28;20288;-73
2023/12/01 08:34:31;;;;;;;23.03;11.17;;;0.40;99.90;;;;;;5057472;28;20202;-75
2023/12/01 08:36:57;;;;;;;25.60;12.20;;;0.60;99.90;;;;;;5057098;28;20655;-74
2023/12/01 08:39:23;;;;;;;28.10;12.73;;;;;;;;;;5062855;28;20562;-74
2023/12/01 08:41:53;;;;;;;30.37;11.70;;;0.30;99.90;;;;;;5062888;28;20689;-76
2023/12/01 08:44:19;;;;;;;25.17;12.00;;;;;;;;;;5061829;28;20180;-77
2023/12/01 08:46:45;;;;;;;26.03;12.10;;;0.40;99.90;;;;;;5058377;28;20168;-76
2023/12/01 08:49:11;;;;;;;25.20;12.70;;;0.30;99.90;;;;;;5054129;28;20635;-76
2023/12/01 08:51:37;;;;;;;29.00;11.30;;;0.50;99.90;;;;;;5053544;28;20296;-75
2023/12/01 08:54:03;;;;;;;30.30;13.47;;;;;;;;;;5055487;28;20211;-76
2023/12/01 08:56:33;;;;;;;30.37;13.53;;;0.80;99.90;;;;;;5055951;28;20217;-75
2023/12/01 08:58:58;;;;;;;30.77;12.53;;;0.60;99.90;;;;;;5055800;28;20180;-78
2023/12/01 09:01:24;;;;;;;25.63;11.83;;;0.80;99.90;;;;;;5061097;28;20181;-78
2023/12/01 09:03:49;;;;;;;26.30;11.93;;;0.80;99.90;;;;;;5060294;28;20188;-79
2023/12/01 09:06:15;;;;;;;27.23;12.27;;;0.90;99.90;;;;;;5078449;28;20173;-81
2023/12/01 09:08:41;;;;;;;24.70;11.80;;;;;;;;;;5072723;28;20180;-82
2023/12/01 09:11:07;;;;;;;23.87;11.53;;;0.60;99.90;;;;;;5053864;28;20561;-80
2023/12/01 09:13:34;;;;;;;25.07;11.47;;;0.60;99.90;;;;;;5054617;28;20174;-78
2023/12/01 09:16:00;;;;;;;25.00;11.93;;;0.60;99.90;;;;;;5053951;28;20181;-78
2023/12/01 09:18:27;;;;;;;24.53;11.37;;;0.80;99.90;;;;;;5053330;28;20216;-79
2023/12/01 09:20:53;;;;;;;26.70;11.90;;;;;;;;;;5053366;28;20248;-80
2023/12/01 09:23:19;;;;;;;26.40;11.30;;;;;;;;;;5055079;28;20243;-79
2023/12/01 09:25:45;;;;;;;24.17;12.17;;;0.80;99.90;;;;;;5053370;28;20538;-79
2023/12/01 09:28:11;;;;;;;23.00;11.17;;;;;;;;;;5053192;28;20177;-79
2023/12/01 09:30:38;;;;;;;23.03;11.40;;;;;;;;;;5059696;28;20209;-79
2023/12/01 09:33:04;;;;;;;24.37;11.30;;;;;;;;;;5062004;28;20189;-80
2023/12/01 09:35:30;;;;;;;25.97;12.47;;;;;;;;;;5052913;28;20219;-80
2023/12/01 09:37:56;;;;;;;21.43;11.77;;;1.00;99.90;;;;;;5053002;28;20173;-80
2023/12/01 09:40:22;;;;;;;27.83;12.23;;;0.90;99.90;;;;;;5052538;28;20648;-81
2023/12/01 09:42:48;;;;;;;24.40;11.87;;;1.30;99.90;;;;;;5060594;28;20177;-81
2023/12/01 09:45:22;;;;;;;28.90;12.63;;;0.90;99.90;;;;;;5051478;28;20268;-81
2023/12/01 09:47:59;;;;;;;26.83;11.97;;;0.80;99.90;;;;;;5051697;28;20187;-81
2023/12/01 09:50:25;;;;;;;21.60;11.67;;;1.60;99.90;;;;;;5061440;28;20745;-81
2023/12/01 09:52:54;;;;;;;29.03;12.50;;;1.10;99.90;;;;;;5058572;28;20656;-80
2023/12/01 09:55:20;;;;;;;21.37;11.20;;;1.30;99.90;;;;;;5048500;28;20177;-79
2023/12/01 09:57:46;;;;;;;28.17;12.43;;;;;;;;;;5054264;28;20176;-81
2023/12/01 10:00:12;;;;;;;25.33;12.00;;;1.20;99.90;;;;;;5058580;28;20210;-80
2023/12/01 10:02:41;;;;;;;24.27;12.47;;;1.20;99.90;;;;;;5055817;28;20185;-81
2023/12/01 10:05:07;;;;;;;24.50;10.87;;;1.30;99.90;;;;;;5078995;28;20173;-82
2023/12/01 10:07:36;;;;;;;24.90;11.87;;;1.70;99.90;;;;;;5065952;28;20628;-79
2023/12/01 10:10:18;;;;;;;24.20;11.90;;;1.50;99.90;;;;;;5058321;28;20255;-79
2023/12/01 10:13:03;;;;;;;25.63;12.00;;;1.60;99.90;;;;;;5046111;28;20176;-80
2023/12/01 10:15:30;;;;;;;24.93;11.37;;;1.70;99.90;;;;;;5055565;28;20185;-81
2023/12/01 10:18:07;;;;;;;26.20;11.27;;;3.10;99.90;;;;;;5057234;28;20174;-80
2023/12/01 10:20:33;;;;;;;26.70;11.57;;;1.00;99.90;;;;;;5049500;28;20628;-81
2023/12/01 10:22:58;;;;;;;25.73;13.07;;;1.60;99.90;;;;;;5052035;28;20173;-80
2023/12/01 10:25:24;;;;;;;25.63;12.07;;;1.70;99.90;;;;;;5052396;28;20169;-81
2023/12/01 10:27:57;;;;;;;24.50;12.47;;;1.90;99.90;;;;;;5056375;28;20230;-81
2023/12/01 10:30:23;;;;;;;26.00;12.33;;;;;;;;;;5052422;28;20205;-80
2023/12/01 10:32:49;;;;;;;32.23;12.40;;;1.60;99.90;;;;;;5057127;28;20255;-79
2023/12/01 10:35:15;;;;;;;24.97;11.40;;;1.40;99.90;;;;;;5051761;28;20180;-80
2023/12/01 10:37:41;;;;;;;25.95;14.65;;;1.80;99.90;;;;;;5051362;28;20418;-80
2023/12/01 10:40:09;;;;;;;32.97;14.07;;;1.70;99.90;;;;;;5050473;28;20276;-79
2023/12/01 10:42:36;;;;;;;24.43;12.63;;;1.60;99.90;;;;;;5051884;28;20173;-76
2023/12/01 10:45:03;;;;;;;28.23;12.40;;;1.50;99.90;;;;;;5059325;28;20189;-77
2023/12/01 10:47:29;;;;;;;26.50;12.77;;;1.80;99.90;;;;;;5051275;28;20183;-77
2023/12/01 10:49:56;;;;;;;27.77;12.90;;;1.50;99.90;;;;;;5051209;28;20286;-80
2023/12/01 10:52:26;;;;;;;27.00;12.73;;;1.50;99.90;;;;;;5051674;28;20235;-78
2023/12/01 10:54:53;;;;;;;22.20;11.30;;;1.60;99.90;;;;;;5049876;28;20660;-78
2023/12/01 10:57:33;;;;;;;27.67;11.00;;;2.10;99.90;;;;;;5051618;28;20183;-77
2023/12/01 11:00:17;;;;;;;21.90;11.60;;;1.60;99.90;;;;;;5049855;28;20185;-77
2023/12/01 11:02:43;;;;;;;26.67;11.50;;;1.30;99.90;;;;;;5042291;28;20187;-77
2023/12/01 11:05:10;;;;;;;25.77;12.10;;;1.50;99.90;;;;;;5050963;28;20231;-78
2023/12/01 11:07:55;;;;;;;28.70;12.57;;;2.60;99.90;;;;;;5051437;28;20226;-78
2023/12/01 11:10:39;;;;;;;35.77;12.00;;;1.80;99.90;;;;;;5050957;28;20209;-78
2023/12/01 11:13:07;;;;;;;24.33;11.47;;;1.40;99.90;;;;;;5050759;28;20189;-78
2023/12/01 11:15:36;;;;;;;22.63;11.30;;;1.70;99.90;;;;;;5051399;28;20212;-78
2023/12/01 11:18:02;;;;;;;24.90;11.63;;;1.50;99.90;;;;;;5050768;28;20178;-77
2023/12/01 11:20:42;;;;;;;21.67;11.23;;;1.90;99.90;;;;;;5051312;28;20177;-78
2023/12/01 11:23:12;;;;;;;26.00;12.83;;;1.90;99.90;;;;;;5050653;28;20189;-77
2023/12/01 11:25:42;;;;;;;25.70;11.97;;;2.10;99.90;;;;;;5047847;28;20173;-77
2023/12/01 11:28:22;;;;;;;25.80;11.90;;;2.20;99.90;;;;;;5050824;28;20165;-77
2023/12/01 11:31:15;;;;;;;23.20;11.97;;;1.90;99.90;;;;;;5048821;28;20209;-78
2023/12/01 11:33:45;;;;;;;20.60;10.63;;;2.00;99.90;;;;;;5050637;28;20189;-78
2023/12/01 11:36:28;;;;;;;21.90;10.97;;;2.10;99.90;;;;;;5050713;28;20177;-77
2023/12/01 11:41:41;;;;;;;22.50;10.90;;;;;;;;;;5050504;28;20185;-78
2023/12/01 11:44:24;;;;;;;20.07;10.77;;;1.90;99.90;;;;;;5049539;28;20185;-78
2023/12/01 11:46:57;;;;;;;20.60;11.27;;;2.10;99.90;;;;;;5050065;28;20212;-78
2023/12/01 11:49:38;;;;;;;23.43;10.97;;;2.30;99.90;;;;;;5050411;28;20225;-78
2023/12/01 11:52:18;;;;;;;22.97;11.47;;;2.20;99.90;;;;;;5050170;28;20217;-78
2023/12/01 11:54:44;;;;;;;22.40;10.83;;;;;;;;;;5048861;28;20223;-79
2023/12/01 11:57:12;;;;;;;22.10;10.57;;;2.40;99.90;;;;;;5050480;28;20177;-79
2023/12/01 11:59:38;;;;;;;20.23;10.93;;;;;;;;;;5051029;28;20165;-79
2023/12/01 12:02:05;;;;;;;22.27;12.30;;;2.40;99.90;;;;;;5050271;28;20632;-79
2023/12/01 12:04:32;;;;;;;21.37;10.77;;;2.50;99.90;;;;;;5050971;28;20224;-79
2023/12/01 12:07:00;;;;;;;23.77;11.33;;;2.30;99.90;;;;;;5048872;28;20176;-78
2023/12/01 12:09:30;;;;;;;26.20;11.60;;;2.40;99.90;;;;;;5051052;28;20181;-79
2023/12/01 12:11:56;;;;;;;20.50;11.00;;;2.10;99.90;;;;;;5050727;28;20766;-79
2023/12/01 12:14:23;;;;;;;18.60;11.00;;;2.40;99.90;;;;;;5050988;28;20252;-80
2023/12/01 12:16:50;;;;;;;27.57;11.00;;;2.40;99.90;;;;;;5053919;28;20189;-78
2023/12/01 12:19:17;;;;;;;20.17;11.07;;;2.40;99.90;;;;;;5076058;28;20169;-79
2023/12/01 12:21:43;;;;;;;22.20;11.40;;;2.50;99.90;;;;;;5063505;28;20189;-78
2023/12/01 12:24:10;;;;;;;24.87;11.53;;;2.50;99.90;;;;;;5060055;28;20223;-79
2023/12/01 12:26:36;;;;;;;20.50;10.97;;;2.60;99.90;;;;;;5057567;28;20191;-78
2023/12/01 12:29:05;;;;;;;21.53;10.93;;;3.00;99.90;;;;;;5053391;28;20252;-79
2023/12/01 12:31:35;;;;;;;22.33;11.33;;;2.50;99.90;;;;;;5051094;28;20217;-79
2023/12/01 12:34:01;;;;;;;26.87;11.30;;;2.50;99.90;;;;;;5050246;28;20170;-79
2023/12/01 12:36:30;;;;;;;22.47;11.37;;;2.70;99.90;;;;;;5050506;28;20177;-79
2023/12/01 12:39:00;;;;;;;24.70;11.60;;;2.60;99.90;;;;;;5049925;28;20272;-80
2023/12/01 12:41:28;;;;;;;22.33;11.10;;;2.60;99.90;;;;;;5050571;28;20189;-80
2023/12/01 12:43:56;;;;;;;21.87;10.77;;;2.80;99.90;;;;;;5049875;28;20692;-79
2023/12/01 12:46:22;;;;;;;25.03;11.80;;;2.70;99.90;;;;;;5050213;28;20169;-78
2023/12/01 12:48:50;;;;;;;20.67;11.40;;;3.30;99.90;;;;;;5049690;28;20225;-78
2023/12/01 12:51:17;;;;;;;23.47;11.47;;;2.70;99.90;;;;;;5041899;28;20217;-79
2023/12/01 12:53:46;;;;;;;21.00;11.13;;;2.80;99.90;;;;;;5049479;28;20196;-80
2023/12/01 12:56:14;;;;;;;20.60;10.57;;;2.60;99.90;;;;;;5059701;28;20267;-79